CST,Max TemperatureF,Mean TemperatureF,Min TemperatureF,Max Dew PointF,MeanDew PointF,Min DewpointF,Max Humidity, Mean Humidity, Min Humidity, Max Sea Level PressureIn, Mean Sea Level PressureIn, Min Sea Level PressureIn, Max VisibilityMiles, Mean VisibilityMiles, Min VisibilityMiles, Max Wind SpeedMPH, Mean Wind SpeedMPH, Max Gust SpeedMPH,PrecipitationIn, CloudCover, Events, WindDirDegrees
2011-12-1,32,21,10,28,17,5,85,62,39,30.52,30.38,30.11,10,10,8,16,9,21,T,3,,345
2011-12-2,32,21,9,21,11,4,83,61,39,30.46,30.24,30.05,10,10,10,24,13,31,0.00,1,,175
2011-12-3,34,27,19,25,22,18,92,77,61,30.11,30.05,29.95,10,10,8,16,6,21,T,5,,273
2011-12-4,28,24,19,21,15,12,77,73,68,30.43,30.21,29.95,10,10,10,16,8,23,0.00,8,,319
2011-12-5,21,14,6,13,9,2,80,71,61,30.58,30.52,30.43,10,9,4,15,8,21,T,7,Snow,349
2011-12-6,21,10,-1,6,2,-5,87,67,47,30.55,30.29,29.98,10,10,10,20,8,23,0.00,1,,199
2011-12-7,35,23,11,18,11,6,84,61,38,30.13,30.04,29.89,10,10,10,28,8,32,0.00,2,,274
2011-12-8,25,18,11,13,4,-1,74,57,39,30.24,30.18,30.09,10,10,10,23,11,30,0.00,1,,270
2011-12-9,17,8,-2,1,-3,-6,87,62,37,30.44,30.32,30.15,10,10,10,17,8,21,0.00,0,,259
2011-12-10,35,19,2,18,13,2,91,68,44,30.29,30.18,30.09,10,9,7,14,10,,0.00,0,,185
2011-12-11,43,31,18,30,24,15,92,69,45,30.11,30.05,29.96,10,8,6,23,12,30,0.00,3,,178
2011-12-12,39,37,34,35,32,30,92,86,79,30.35,30.20,30.07,7,4,2,8,3,10,0.00,8,,83
2011-12-13,37,36,34,36,33,31,100,91,82,30.37,30.26,30.07,5,2,0,9,5,13,T,8,Fog,107
2011-12-14,37,35,33,36,34,33,100,96,92,30.12,29.81,29.65,5,2,0,12,5,14,0.09,8,Fog-Snow,97
2011-12-15,35,24,12,33,20,9,92,75,57,30.41,29.97,29.67,10,10,3,37,18,45,T,6,,305
2011-12-16,25,19,13,12,9,1,88,62,36,30.50,30.42,30.28,10,10,10,12,2,15,0.00,5,,332
2011-12-17,36,27,18,23,19,10,92,72,52,30.34,30.19,30.07,10,10,8,17,8,21,0.00,4,,221
2011-12-18,47,32,16,31,24,14,92,73,53,30.12,29.84,29.69,10,10,9,17,8,21,0.00,0,,188
2011-12-19,37,28,19,29,20,15,82,68,54,30.34,30.15,29.83,10,10,10,20,10,26,0.00,5,,330
2011-12-20,33,21,9,19,15,8,92,70,47,30.30,30.01,29.75,10,10,10,18,8,23,0.00,0,,181
2011-12-21,31,24,17,27,21,15,92,80,68,30.13,29.81,29.61,10,8,2,16,5,21,0.01,6,Snow,343
2011-12-22,27,19,11,16,10,5,88,69,50,30.41,30.30,30.07,10,10,10,14,6,21,0.00,0,,294
2011-12-23,37,25,13,23,16,10,88,70,51,30.27,30.08,29.93,10,8,2,20,10,24,0.01,4,Snow,247
2011-12-24,42,26,10,22,17,8,92,68,43,30.20,30.09,29.99,10,10,8,22,9,26,0.00,0,,238
2011-12-25,42,33,23,24,22,18,81,62,43,30.31,30.21,30.01,10,10,10,23,11,30,0.00,0,,272
2011-12-26,49,37,24,30,23,19,81,58,34,30.12,29.79,29.63,10,10,10,29,15,37,0.00,2,,219
2011-12-27,37,29,20,28,16,9,70,59,47,30.09,29.97,29.69,10,10,10,26,11,33,0.00,4,,346
2011-12-28,34,27,20,28,16,7,82,67,51,30.06,29.82,29.52,10,10,10,15,7,20,T,5,,148
2011-12-29,37,32,26,29,25,21,92,78,64,29.70,29.60,29.45,10,10,7,18,6,23,0.00,5,,14
2011-12-30,30,28,26,25,24,21,92,85,78,29.88,29.74,29.62,10,5,1,9,4,13,0.11,8,Snow,74
2011-12-31,38,32,26,33,30,24,100,91,82,29.84,29.71,29.54,10,4,0,32,9,39,0.18,8,Fog-Snow,80